Time;durP1;ratioP1;P1;durP2;ratioP2;P2;SDS_P1;SDS_P2;PMS_P1;PMS_P2;Temp;Humidity;BMP_temperature;BMP_pressure;BME280_temperature;BME280_humidity;BME280_pressure;Samples;Min_cycle;Max_cycle;Signal;HPM_P1;HPM_P2
2022/08/30 00:01:01;;;;;;;14.88;4.10;;;;;;;22.19;43.08;100137.88;4985384;28;20521;-89
2022/08/30 00:03:58;;;;;;;8.98;3.83;;;;;;;21.99;43.60;100138.63;4966162;28;20046;-89
2022/08/30 00:06:27;;;;;;;13.85;4.05;;;;;;;22.15;43.56;100140.13;4929248;28;20038;-89
2022/08/30 00:08:54;;;;;;;12.98;4.45;;;;;;;22.16;43.97;100132.84;5001046;28;20058;-88
2022/08/30 00:11:26;;;;;;;9.32;3.72;;;;;;;22.04;44.38;100146.13;5001214;28;20046;-90
2022/08/30 00:13:54;;;;;;;9.75;3.58;;;;;;;22.04;44.14;100141.56;4984951;28;20053;-88
2022/08/30 00:16:21;;;;;;;9.25;4.13;;;;;;;22.07;44.15;100143.84;4949143;28;20042;-89
2022/08/30 00:18:48;;;;;;;12.52;3.70;;;;;;;22.00;44.39;100137.59;4985108;28;20069;-90
2022/08/30 00:21:17;;;;;;;10.93;4.15;;;;;;;21.97;44.28;100131.75;4984426;28;20046;-89
2022/08/30 00:23:44;;;;;;;10.43;4.63;;;;;;;21.92;44.84;100132.34;4987145;28;20053;-88
2022/08/30 00:26:13;;;;;;;9.75;3.60;;;;;;;21.93;44.89;100139.44;4984509;28;20054;-90
2022/08/30 00:28:40;;;;;;;11.93;4.45;;;;;;;21.89;44.58;100140.88;4968375;28;20046;-88
2022/08/30 00:31:07;;;;;;;9.02;4.13;;;;;;;21.92;44.50;100129.66;5001341;28;22154;-89
2022/08/30 00:33:34;;;;;;;10.55;4.38;;;;;;;21.87;45.26;100132.97;4986107;28;20391;-89
2022/08/30 00:36:02;;;;;;;8.48;3.90;;;;;;;21.89;44.65;100136.31;4965356;28;20586;-89
2022/08/30 00:38:28;;;;;;;9.27;4.10;;;;;;;21.88;44.35;100131.13;4985424;28;20074;-89
2022/08/30 00:40:55;;;;;;;13.20;4.03;;;;;;;21.84;44.60;100137.94;5000105;28;20394;-89
2022/08/30 00:43:25;;;;;;;10.25;4.00;;;;;;;21.92;42.94;100142.34;4981015;28;20048;-89
2022/08/30 00:45:54;;;;;;;7.18;3.55;;;;;;;21.96;43.48;100136.34;4950992;28;20120;-89
2022/08/30 00:48:21;;;;;;;10.23;4.60;;;;;;;21.95;44.31;100140.06;4968843;28;20069;-89
2022/08/30 00:50:58;;;;;;;13.75;3.97;;;;;;;21.80;44.36;100140.19;4982653;28;20409;-89
2022/08/30 00:53:28;;;;;;;16.08;3.85;;;;;;;22.00;42.63;100144.88;4951134;28;20049;-89
2022/08/30 00:55:55;;;;;;;12.43;4.32;;;;;;;22.04;42.92;100140.72;4965583;28;20406;-90
2022/08/30 00:58:27;;;;;;;16.08;6.65;;;;;;;22.02;41.80;100140.09;4999879;28;20481;-90
2022/08/30 01:00:56;;;;;;;8.70;4.22;;;;;;;22.04;42.12;100140.72;4981325;28;20054;-90
2022/08/30 01:03:23;;;;;;;14.57;4.60;;;;;;;22.09;42.08;100152.59;4983734;28;20520;-90
2022/08/30 01:05:50;;;;;;;15.30;4.40;;;;;;;22.09;42.28;100149.06;5000478;28;20121;-90
2022/08/30 01:08:20;;;;;;;14.10;4.45;;;;;;;22.06;42.31;100147.59;4968690;28;20057;-90
2022/08/30 01:10:54;;;;;;;10.57;3.85;;;;;;;21.96;42.43;100147.16;4984692;28;20054;-90
2022/08/30 01:13:22;;;;;;;13.20;4.05;;;;;;;22.02;42.37;100145.50;4983969;28;20514;-90
2022/08/30 01:15:49;;;;;;;13.63;4.75;;;;;;;22.08;42.17;100136.56;4983688;28;20065;-89
2022/08/30 01:18:17;;;;;;;11.48;4.28;;;;;;;22.03;43.05;100150.72;4954056;28;20046;-91
2022/08/30 01:21:09;;;;;;;11.45;5.07;;;;;;;21.94;42.17;100151.94;4992724;28;20974;-91
2022/08/30 01:23:39;;;;;;;10.88;4.22;;;;;;;22.03;42.09;100148.03;4988611;28;20513;-89
2022/08/30 01:26:09;;;;;;;8.82;4.22;;;;;;;22.03;42.13;100148.03;4999608;28;20042;-89
2022/08/30 01:28:38;;;;;;;13.05;4.50;;;;;;;22.05;42.50;100150.50;4965824;28;20056;-89
2022/08/30 01:31:05;;;;;;;12.98;4.55;;;;;;;21.92;42.40;100156.69;4995856;28;20179;-88
2022/08/30 01:33:32;;;;;;;13.55;4.68;;;;;;;22.06;41.99;100152.19;4984370;28;20050;-89
2022/08/30 01:36:02;;;;;;;11.60;4.63;;;;;;;22.01;42.78;100151.97;4966878;28;20046;-89
2022/08/30 01:38:39;;;;;;;12.15;4.32;;;;;;;21.94;42.50;100149.22;4965461;28;20118;-89
2022/08/30 01:41:34;;;;;;;11.25;4.47;;;;;;;21.72;44.62;100137.69;4994896;28;20071;-89
2022/08/30 01:44:09;;;;;;;10.15;4.25;;;;;;;21.86;42.66;100141.28;4898131;28;20521;-89
2022/08/30 01:46:45;;;;;;;17.58;4.97;;;;;;;21.91;42.89;100143.41;4994456;28;20050;-89
2022/08/30 01:49:17;;;;;;;8.48;4.05;;;;;;;21.74;44.53;100143.72;4978780;28;20050;-89
2022/08/30 01:51:53;;;;;;;14.40;4.63;;;;;;;21.84;43.42;100146.06;4980184;28;20050;-90
2022/08/30 01:54:27;;;;;;;9.70;4.40;;;;;;;21.79;43.07;100135.84;4965857;28;20046;-89
2022/08/30 01:57:10;;;;;;;10.90;4.50;;;;;;;21.59;42.95;100146.56;4949210;28;20058;-89
2022/08/30 01:59:38;;;;;;;11.50;4.78;;;;;;;21.68;42.86;100137.25;4984217;28;20042;-89
2022/08/30 02:02:05;;;;;;;14.88;4.45;;;;;;;21.71;43.04;100140.59;4947007;28;20048;-89
2022/08/30 02:04:32;;;;;;;11.80;3.95;;;;;;;21.74;42.91;100141.03;4962932;28;20053;-90
2022/08/30 02:06:59;;;;;;;11.70;5.10;;;;;;;21.68;42.87;100137.25;4982100;28;20160;-87
2022/08/30 02:09:26;;;;;;;15.50;4.32;;;;;;;21.49;43.34;100143.38;5016506;28;20038;-90
2022/08/30 02:11:54;;;;;;;14.30;4.30;;;;;;;21.66;43.02;100136.63;4997775;28;20046;-90
2022/08/30 02:14:21;;;;;;;11.95;4.82;;;;;;;21.65;43.17;100137.66;4981310;28;20133;-89
2022/08/30 02:16:48;;;;;;;13.40;4.53;;;;;;;21.66;43.42;100144.72;4984102;28;20045;-90
2022/08/30 02:19:16;;;;;;;14.60;4.93;;;;;;;21.65;43.43;100142.22;4984455;28;20048;-90
2022/08/30 02:21:43;;;;;;;11.73;4.65;;;;;;;21.66;43.51;100141.19;4982304;28;20124;-89
2022/08/30 02:25:05;;;;;;;15.82;5.18;;;;;;;21.50;43.92;100139.66;4966471;28;20066;-89
2022/08/30 02:27:36;;;;;;;10.55;4.75;;;;;;;21.61;44.13;100136.38;4909819;28;20118;-89
2022/08/30 02:30:08;;;;;;;14.35;4.85;;;;;;;21.68;43.56;100139.97;4982690;28;20818;-89
2022/08/30 02:32:35;;;;;;;14.48;4.90;;;;;;;21.68;44.19;100131.84;4966299;28;20069;-88
2022/08/30 02:35:02;;;;;;;13.18;4.80;;;;;;;21.61;43.73;100124.75;5015805;28;20042;-89
2022/08/30 02:37:33;;;;;;;10.55;5.00;;;;;;;21.61;43.80;100122.06;4967018;28;20039;-89
2022/08/30 02:40:00;;;;;;;14.30;5.40;;;;;;;21.69;43.42;100124.56;4972996;28;20039;-90
2022/08/30 02:42:27;;;;;;;13.90;5.00;;;;;;;21.69;43.49;100124.56;4964046;28;20050;-88
2022/08/30 02:44:54;;;;;;;10.77;4.68;;;;;;;21.60;43.66;100123.06;4967267;28;20493;-90
2022/08/30 02:47:20;;;;;;;11.15;4.93;;;;;;;21.59;43.66;100119.53;4963884;28;20109;-89
2022/08/30 02:50:16;;;;;;;16.27;4.72;;;;;;;21.35;43.92;100118.16;4981651;28;20397;-88
2022/08/30 02:52:44;;;;;;;13.15;4.60;;;;;;;21.52;43.77;100124.06;4961320;28;20149;-89
2022/08/30 02:55:14;;;;;;;14.30;5.10;;;;;;;;;;4966197;28;20062;-89
2022/08/30 02:57:42;;;;;;;17.58;5.25;;;;;;;21.40;44.04;100125.69;5009848;28;20050;-89
2022/08/30 03:00:11;;;;;;;12.32;4.97;;;;;;;21.46;43.88;100114.06;4983901;28;20136;-89
2022/08/30 03:02:39;;;;;;;15.20;4.70;;;;;;;21.43;44.22;100119.88;4963853;28;20050;-89
2022/08/30 03:05:32;;;;;;;12.80;4.50;;;;;;;21.13;44.76;100125.47;4968567;28;20461;-89
2022/08/30 03:07:59;;;;;;;17.73;5.40;;;;;;;21.39;44.46;100132.09;4897771;28;20070;-89
2022/08/30 03:10:27;;;;;;;14.95;4.43;;;;;;;21.34;44.49;100126.44;4980421;28;20046;-89
2022/08/30 03:12:54;;;;;;;11.77;4.10;;;;;;;21.35;44.78;100126.25;4996531;28;20522;-89
2022/08/30 03:15:24;;;;;;;15.70;4.88;;;;;;;21.35;44.27;100128.94;4998990;28;20172;-90
2022/08/30 03:17:51;;;;;;;12.43;4.32;;;;;;;21.27;44.91;100133.66;4983013;28;20387;-89
2022/08/30 03:20:19;;;;;;;13.18;5.22;;;;;;;21.30;44.69;100125.19;4965206;28;20770;-89
2022/08/30 03:22:46;;;;;;;12.60;4.90;;;;;;;21.29;44.59;100116.22;4981863;28;20046;-89
2022/08/30 03:25:13;;;;;;;12.45;4.40;;;;;;;21.20;45.01;100126.38;4984115;28;20441;-90
2022/08/30 03:27:40;;;;;;;11.95;5.10;;;;;;;21.24;44.90;100124.94;4953850;28;20101;-90
2022/08/30 03:30:08;;;;;;;15.05;4.22;;;;;;;21.27;45.08;100112.91;4955197;28;20104;-89
2022/08/30 03:32:35;;;;;;;12.60;4.82;;;;;;;21.27;44.88;100117.44;4946457;28;20053;-90
2022/08/30 03:35:02;;;;;;;14.30;4.18;;;;;;;21.24;44.77;100118.69;4970867;28;20044;-90
2022/08/30 03:37:29;;;;;;;12.07;4.80;;;;;;;20.98;45.39;100122.88;4970956;28;20124;-91
2022/08/30 03:39:56;;;;;;;12.95;4.65;;;;;;;21.02;45.34;100120.63;5020070;28;20054;-90
2022/08/30 03:42:23;;;;;;;15.77;4.60;;;;;;;21.05;45.28;100122.94;4977848;28;20066;-88
2022/08/30 03:44:50;;;;;;;13.07;4.72;;;;;;;21.10;45.33;100119.66;4986249;28;20402;-90
2022/08/30 03:47:17;;;;;;;13.50;4.68;;;;;;;21.06;45.31;100121.91;4984916;28;20039;-89
2022/08/30 03:49:45;;;;;;;18.90;4.68;;;;;;;20.96;45.51;100121.41;4983651;28;20101;-89
2022/08/30 03:52:11;;;;;;;13.38;4.90;;;;;;;20.99;45.37;100121.03;4966146;28;20045;-88
2022/08/30 03:54:40;;;;;;;7.80;4.70;;;;;;;21.03;45.69;100128.53;5017538;28;20070;-89
2022/08/30 03:57:07;;;;;;;16.58;5.05;;;;;;;21.08;45.12;100124.41;4982677;28;20057;-88
2022/08/30 03:59:43;;;;;;;14.55;4.80;;;;;;;20.97;46.00;100123.09;5002542;28;20195;-89
2022/08/30 04:02:09;;;;;;;19.73;5.40;;;;;;;21.05;45.51;100122.94;4970263;28;20045;-88
2022/08/30 04:04:36;;;;;;;16.30;5.00;;;;;;;21.05;45.59;100122.94;4966210;28;20059;-88
2022/08/30 04:07:03;;;;;;;14.52;4.75;;;;;;;21.00;46.44;100125.41;4984597;28;20100;-87
2022/08/30 04:09:30;;;;;;;13.57;4.97;;;;;;;21.05;45.82;100124.81;4985877;28;20053;-87
2022/08/30 04:11:56;;;;;;;15.20;5.22;;;;;;;21.03;45.93;100131.22;4951084;28;20050;-87
2022/08/30 04:14:23;;;;;;;10.32;4.40;;;;;;;20.94;45.96;100121.63;4961949;28;20410;-88
2022/08/30 04:16:50;;;;;;;13.18;4.93;;;;;;;20.99;45.77;100121.03;4982512;28;20046;-87
2022/08/30 04:19:17;;;;;;;12.27;4.60;;;;;;;20.96;45.83;100116.88;4979242;28;20047;-87
2022/08/30 04:21:44;;;;;;;18.35;4.90;;;;;;;20.97;45.62;100117.69;4984282;28;20132;-88
2022/08/30 04:24:12;;;;;;;13.85;4.95;;;;;;;20.96;46.60;100122.28;4985971;28;20053;-87
2022/08/30 04:26:38;;;;;;;12.65;4.85;;;;;;;20.93;46.94;100129.91;4983011;28;20058;-88
2022/08/30 04:29:05;;;;;;;12.98;5.43;;;;;;;20.83;47.33;100129.41;4984698;28;20046;-87
2022/08/30 04:31:32;;;;;;;23.35;4.78;;;;;;;20.89;46.96;100131.31;5001199;28;20050;-88
2022/08/30 04:33:58;;;;;;;12.65;4.70;;;;;;;20.80;47.73;100125.25;4970537;28;20042;-85
2022/08/30 04:36:25;;;;;;;12.15;5.70;;;;;;;20.76;48.19;100132.03;4998062;28;20355;-85
2022/08/30 04:38:58;;;;;;;10.85;4.68;;;;;;;20.68;48.37;100138.41;4986937;28;20050;-85
2022/08/30 04:41:25;;;;;;;;;;;;;;;20.42;48.04;100141.69;4985857;28;20047;-86
2022/08/30 04:43:51;;;;;;;16.25;4.50;;;;;;;20.78;46.89;100135.38;4968175;28;19930;-85
2022/08/30 04:46:18;;;;;;;16.75;4.60;;;;;;;20.81;47.11;100130.44;4971083;28;20393;-85
2022/08/30 04:48:45;;;;;;;13.50;5.43;;;;;;;20.84;47.46;100142.72;4962169;28;20502;-85
2022/08/30 04:55:46;;;;;;;14.05;5.00;;;;;;;20.80;48.03;100146.81;4959716;28;20277;-85
2022/08/30 04:58:18;;;;;;;13.32;5.00;;;;;;;20.71;47.29;100150.69;4964245;28;20062;-85
2022/08/30 05:00:45;;;;;;;15.23;5.40;;;;;;;20.84;47.21;100147.25;4947966;28;20047;-85
2022/08/30 05:03:12;;;;;;;17.38;5.32;;;;;;;20.88;47.12;100146.69;4950160;28;20046;-85
2022/08/30 05:09:21;;;;;;;16.00;5.18;;;;;;;20.90;46.85;100146.50;4930386;28;20106;-84
2022/08/30 05:11:48;;;;;;;11.65;5.50;;;;;;;20.84;47.15;100150.81;4996104;28;20391;-83
2022/08/30 05:14:45;;;;;;;14.02;6.18;;;;;;;20.69;47.54;100150.91;4951697;28;20043;-83
2022/08/30 05:17:11;;;;;;;12.88;4.72;;;;;;;20.87;47.67;100155.00;4932170;28;20430;-84
2022/08/30 05:19:38;;;;;;;18.38;5.05;;;;;;;20.92;47.21;100153.38;4981712;28;20058;-84
2022/08/30 05:22:05;;;;;;;18.33;5.45;;;;;;;20.93;46.90;100155.03;4968660;28;20073;-83
2022/08/30 05:24:33;;;;;;;14.55;4.63;;;;;;;20.93;46.97;100152.31;4984360;28;20046;-84
2022/08/30 05:26:59;;;;;;;13.38;5.15;;;;;;;20.89;47.27;100151.06;4983396;28;20510;-84
2022/08/30 05:29:29;;;;;;;12.50;7.32;;;;;;;20.96;47.09;100153.81;4983364;28;20060;-84
2022/08/30 05:31:55;;;;;;;13.75;5.00;;;;;;;20.97;47.32;100153.63;5000934;28;20046;-84
2022/08/30 05:34:22;;;;;;;16.77;5.07;;;;;;;20.95;47.46;100161.06;4950480;28;20502;-84
2022/08/30 05:36:49;;;;;;;10.30;4.82;;;;;;;20.96;47.30;100151.97;4980973;28;20077;-86
2022/08/30 05:39:18;;;;;;;11.80;4.63;;;;;;;20.94;47.44;100161.25;5004781;28;20573;-84
2022/08/30 05:41:47;;;;;;;20.55;5.72;;;;;;;20.95;47.24;100154.84;4948764;28;20042;-84
2022/08/30 05:44:16;;;;;;;13.57;4.85;;;;;;;20.85;47.38;100148.94;4949334;28;20117;-83
2022/08/30 05:46:45;;;;;;;12.82;5.25;;;;;;;20.92;47.36;100155.25;4995709;28;20053;-83
2022/08/30 05:49:23;;;;;;;13.55;5.32;;;;;;;20.50;47.93;100154.19;4981711;28;20049;-84
2022/08/30 05:51:50;;;;;;;14.57;5.15;;;;;;;20.79;47.41;100161.38;4921552;28;20047;-83
2022/08/30 05:54:17;;;;;;;11.10;5.05;;;;;;;20.73;47.43;100164.81;5008532;28;20070;-84
2022/08/30 05:56:49;;;;;;;14.80;5.50;;;;;;;20.72;47.97;100166.69;4979019;28;20163;-84
2022/08/30 05:59:15;;;;;;;16.15;6.13;;;;;;;20.80;47.71;100166.56;4932237;28;20049;-83
2022/08/30 06:02:38;;;;;;;18.27;5.55;;;;;;;20.62;47.94;100166.19;4967357;28;20042;-85
2022/08/30 06:05:06;;;;;;;13.80;5.65;;;;;;;20.86;47.67;100175.72;4921744;28;20055;-84
2022/08/30 06:07:33;;;;;;;16.77;5.53;;;;;;;20.87;48.02;100176.59;4943182;28;20415;-83
2022/08/30 06:10:00;;;;;;;13.43;5.07;;;;;;;20.89;48.25;100171.81;4949160;28;20046;-84
2022/08/30 06:12:27;;;;;;;21.50;6.03;;;;;;;20.93;47.57;100168.53;4978464;28;20074;-85
2022/08/30 06:15:19;;;;;;;16.42;5.38;;;;;;;20.78;48.11;100167.78;4952261;28;20050;-84
2022/08/30 06:17:47;;;;;;;16.50;5.38;;;;;;;20.94;47.96;100170.22;4933293;28;20046;-83
2022/08/30 06:20:19;;;;;;;10.55;5.30;;;;;;;20.92;48.16;100163.34;4978321;28;20050;-83
2022/08/30 06:22:45;;;;;;;14.35;5.45;;;;;;;21.02;48.27;100172.75;4969136;28;20038;-83
2022/08/30 06:25:13;;;;;;;12.70;5.15;;;;;;;21.04;47.57;100159.09;4983381;28;20429;-84
2022/08/30 06:28:35;;;;;;;12.32;4.75;;;;;;;20.88;48.29;100157.47;5010610;28;20046;-84
2022/08/30 06:31:32;;;;;;;13.20;5.05;;;;;;;20.78;48.78;100159.69;4888966;28;20447;-83
2022/08/30 06:34:29;;;;;;;14.02;5.65;;;;;;;20.70;48.94;100154.44;4940417;28;20050;-85
2022/08/30 06:51:02;;;;;;;11.02;4.53;;;;;;;20.79;48.62;100154.09;4976181;28;20042;-84
2022/08/30 06:53:59;;;;;;;11.38;4.75;;;;;;;20.89;48.93;100159.16;4961909;28;20042;-85
2022/08/30 06:56:26;;;;;;;16.40;5.32;;;;;;;21.02;48.42;100155.75;4957935;28;20047;-84
2022/08/30 06:58:53;;;;;;;14.25;5.60;;;;;;;21.10;48.19;100152.06;4949353;28;20065;-85
2022/08/30 07:05:10;;;;;;;11.52;4.88;;;;;;;21.07;48.86;100161.38;4952728;28;20042;-84
2022/08/30 07:20:02;;;;;;;11.82;4.70;;;;;;;21.39;48.25;100159.94;4915070;28;20103;-85
2022/08/30 07:22:34;;;;;;;16.88;5.97;;;;;;;21.41;48.68;100163.28;4972430;28;20498;-84
2022/08/30 07:28:44;;;;;;;13.05;5.50;;;;;;;21.55;48.39;100164.22;4911798;28;20049;-84
2022/08/30 07:31:13;;;;;;;13.55;4.90;;;;;;;21.55;48.58;100161.53;4988196;28;20042;-84
2022/08/30 07:33:39;;;;;;;10.40;5.25;;;;;;;21.64;48.54;100162.19;5003864;28;20050;-84
2022/08/30 07:36:06;;;;;;;12.15;5.40;;;;;;;21.61;48.62;100159.88;4962521;28;20053;-84
2022/08/30 07:38:33;;;;;;;11.00;5.50;;;;;;;21.67;47.97;100156.38;4985238;28;20062;-84
2022/08/30 07:41:00;;;;;;;18.95;5.40;;;;;;;21.72;48.22;100158.47;4984293;28;20046;-83
2022/08/30 07:43:27;;;;;;;11.80;5.18;;;;;;;21.72;48.34;100159.31;4981441;28;20538;-84
2022/08/30 07:45:56;;;;;;;16.83;5.10;;;;;;;21.79;48.08;100154.78;4954140;28;20422;-83
2022/08/30 07:48:53;;;;;;;11.90;5.38;;;;;;;21.70;48.50;100163.25;4978429;28;20370;-85
2022/08/30 07:51:22;;;;;;;10.45;5.28;;;;;;;21.82;48.45;100169.75;4899128;28;20046;-84
2022/08/30 07:53:50;;;;;;;10.93;5.10;;;;;;;21.91;48.09;100167.72;4949637;28;20046;-84
2022/08/30 07:56:17;;;;;;;11.40;5.07;;;;;;;21.89;48.17;100168.75;4953626;28;20423;-84
2022/08/30 07:58:44;;;;;;;15.90;5.35;;;;;;;21.92;47.86;100158.56;4986252;28;20043;-84
2022/08/30 08:01:11;;;;;;;12.15;5.13;;;;;;;22.02;47.90;100159.84;4984053;28;20454;-84
2022/08/30 08:03:39;;;;;;;12.77;5.07;;;;;;;22.07;48.21;100162.78;4984469;28;20046;-84
2022/08/30 08:10:56;;;;;;;11.05;4.65;;;;;;;22.14;47.99;100162.81;4955979;28;20093;-84
2022/08/30 08:13:25;;;;;;;14.82;4.93;;;;;;;22.16;47.88;100160.75;4970311;28;20493;-84
2022/08/30 08:15:58;;;;;;;13.15;5.10;;;;;;;22.17;47.91;100162.41;5000467;28;20046;-84
2022/08/30 08:22:55;;;;;;;15.45;5.60;;;;;;;22.28;48.32;100161.81;4954215;28;20124;-85
2022/08/30 08:25:22;;;;;;;11.25;5.05;;;;;;;22.34;48.06;100157.50;4980405;28;20038;-84
2022/08/30 08:27:50;;;;;;;11.70;5.22;;;;;;;22.43;48.48;100160.84;5001244;28;20096;-82
2022/08/30 08:30:21;;;;;;;10.38;4.53;;;;;;;22.50;48.84;100165.22;4986288;28;20060;-84
2022/08/30 08:33:38;;;;;;;14.20;5.40;;;;;;;22.47;48.12;100157.50;4981446;28;20380;-84
2022/08/30 08:36:05;;;;;;;14.48;5.13;;;;;;;22.56;48.00;100158.13;4955258;28;20069;-85
2022/08/30 08:39:27;;;;;;;15.05;4.85;;;;;;;22.49;48.63;100160.00;4962604;28;20522;-83
2022/08/30 08:42:12;;;;;;;11.57;4.75;;;;;;;22.59;48.07;100155.00;4963887;28;20465;-84
2022/08/30 08:49:22;;;;;;;13.55;5.47;;;;;;;22.75;47.73;100149.22;4976245;28;20027;-84
2022/08/30 08:54:35;;;;;;;16.38;5.57;;;;;;;22.90;47.60;100150.88;4987897;28;20395;-83
2022/08/30 08:57:09;;;;;;;10.80;5.28;;;;;;;22.87;47.19;100149.44;4963488;28;20050;-82
2022/08/30 09:04:16;;;;;;;13.38;5.53;;;;;;;22.89;47.19;100147.31;4949090;28;21235;-82
2022/08/30 09:07:03;;;;;;;10.20;5.22;;;;;;;23.01;47.32;100144.88;4924088;28;20052;-84
2022/08/30 09:09:32;;;;;;;11.52;5.22;;;;;;;23.07;46.90;100138.59;4949996;28;20047;-83
2022/08/30 09:11:59;;;;;;;20.95;5.53;;;;;;;23.06;46.93;100142.34;4977038;28;20046;-84
2022/08/30 09:14:30;;;;;;;14.63;5.80;;;;;;;23.09;47.18;100136.50;4999549;28;20479;-84
2022/08/30 09:17:02;;;;;;;13.55;5.47;;;;;;;23.04;47.10;100140.91;4965710;28;20047;-84
2022/08/30 09:19:32;;;;;;;11.63;4.77;;;;;;;23.15;47.18;100138.41;4969423;28;20459;-84
2022/08/30 09:22:11;;;;;;;13.48;5.13;;;;;;;23.23;46.94;100136.50;4960904;28;20097;-83
2022/08/30 09:24:44;;;;;;;9.55;5.15;;;;;;;23.28;46.54;100129.41;4999198;28;20051;-84
2022/08/30 09:27:43;;;;;;;11.35;4.53;;;;;;;23.27;46.27;100125.03;4981945;28;20057;-83
2022/08/30 09:30:20;;;;;;;9.52;4.85;;;;;;;23.38;46.38;100124.38;4912520;28;20058;-83
2022/08/30 09:32:56;;;;;;;9.30;4.40;;;;;;;23.44;46.50;100114.56;4949065;28;20502;-84
2022/08/30 09:35:51;;;;;;;8.90;4.63;;;;;;;23.47;46.58;100116.03;5001538;28;20042;-84
2022/08/30 09:38:23;;;;;;;13.07;4.53;;;;;;;23.61;46.29;100110.34;4922616;28;20044;-84
2022/08/30 09:40:52;;;;;;;7.75;4.80;;;;;;;23.69;46.38;100108.44;4948166;28;20050;-85
2022/08/30 09:43:29;;;;;;;12.73;5.57;;;;;;;23.66;46.39;100109.72;4964926;28;20053;-84
2022/08/30 09:45:59;;;;;;;11.70;5.40;;;;;;;23.70;45.82;100105.50;4969894;28;20050;-84
2022/08/30 09:52:12;;;;;;;8.80;4.80;;;;;;;23.75;45.94;100104.88;4947927;28;20116;-83
2022/08/30 09:54:47;;;;;;;8.93;4.78;;;;;;;23.74;45.13;100100.53;4985977;28;20478;-86
2022/08/30 09:57:35;;;;;;;6.28;4.05;;;;;;;23.71;44.96;100098.19;4992259;28;20054;-84
2022/08/30 10:00:53;;;;;;;6.57;4.20;;;;;;;23.73;45.10;100096.13;4979805;28;20053;-86
2022/08/30 10:03:53;;;;;;;8.75;3.90;;;;;;;23.83;44.38;100089.19;4900097;28;20046;-85
2022/08/30 10:11:16;;;;;;;10.38;4.45;;;;;;;23.86;43.36;100090.63;4945654;28;20563;-85
2022/08/30 10:23:51;;;;;;;8.27;4.47;;;;;;;23.98;42.05;100083.47;4962828;28;20053;-85
2022/08/30 10:35:21;;;;;;;9.55;4.35;;;;;;;24.11;43.00;100068.19;4964752;28;20177;-84
2022/08/30 10:38:00;;;;;;;11.32;4.72;;;;;;;24.14;41.89;100065.84;4920347;28;20449;-86
2022/08/30 10:44:28;;;;;;;17.27;5.38;;;;;;;24.22;41.61;100060.19;4908841;28;20125;-87
2022/08/30 10:47:23;;;;;;;11.35;5.53;;;;;;;24.20;41.17;100062.28;4963823;28;20046;-86
2022/08/30 10:50:27;;;;;;;11.85;4.97;;;;;;;24.28;40.84;100061.19;4974754;28;20487;-84
2022/08/30 10:56:39;;;;;;;8.35;5.10;;;;;;;24.53;39.98;100053.09;4942979;28;20054;-85
2022/08/30 11:03:44;;;;;;;8.57;5.03;;;;;;;24.58;39.49;100052.41;4961363;28;20026;-85
2022/08/30 11:10:46;;;;;;;13.23;5.97;;;;;;;24.70;39.39;100045.19;4969204;28;20363;-85
2022/08/30 11:13:20;;;;;;;8.35;4.80;;;;;;;24.76;39.92;100044.31;4978580;28;20069;-86
2022/08/30 11:16:14;;;;;;;7.65;5.75;;;;;;;24.73;39.04;100049.34;4998361;28;20093;-85
2022/08/30 11:19:13;;;;;;;9.63;5.00;;;;;;;24.73;39.41;100041.19;4945230;28;20066;-85
2022/08/30 11:21:41;;;;;;;8.95;4.50;;;;;;;24.83;39.78;100038.78;4925849;28;20435;-85
2022/08/30 11:24:20;;;;;;;10.13;5.43;;;;;;;24.85;40.22;100040.22;4992300;28;20045;-85
2022/08/30 11:26:47;;;;;;;10.60;5.90;;;;;;;24.97;39.84;100034.91;4996002;28;20054;-85
2022/08/30 11:33:05;;;;;;;11.30;6.28;;;;;;;24.94;40.11;100046.22;4939073;28;20054;-84
2022/08/30 11:35:48;;;;;;;17.50;6.50;;;;;;;24.91;40.70;100036.63;4976653;28;20076;-87
2022/08/30 11:38:38;;;;;;;16.50;6.70;;;;;;;24.86;40.23;100041.91;5012554;28;20498;-85
2022/08/30 11:41:11;;;;;;;13.80;6.18;;;;;;;24.97;40.82;100039.50;4983302;28;20053;-85
2022/08/30 11:43:41;;;;;;;11.27;6.20;;;;;;;25.02;41.29;100029.63;4980377;28;20514;-86
2022/08/30 11:51:04;;;;;;;11.38;5.60;;;;;;;25.03;40.76;100030.44;4978864;28;20036;-84
2022/08/30 11:53:32;;;;;;;12.45;6.20;;;;;;;25.10;40.93;100039.34;5000817;28;20053;-84
2022/08/30 11:56:20;;;;;;;11.18;5.80;;;;;;;25.05;40.64;100017.47;5000899;28;20050;-83
2022/08/30 11:58:53;;;;;;;14.75;7.10;;;;;;;25.12;41.07;100040.78;4966217;28;20367;-83
2022/08/30 12:05:58;;;;;;;8.52;6.05;;;;;;;25.23;40.74;100014.75;4959318;28;20031;-83
2022/08/30 12:12:56;;;;;;;10.77;5.97;;;;;;;25.40;40.66;100008.72;4955638;28;20458;-84
2022/08/30 12:15:28;;;;;;;13.35;6.72;;;;;;;25.40;40.67;100000.56;4984642;28;20063;-85
2022/08/30 12:25:18;;;;;;;13.70;6.55;;;;;;;25.34;39.37;100000.44;4933248;28;20458;-84
2022/08/30 12:27:47;;;;;;;12.98;6.68;;;;;;;25.38;40.41;100003.50;4946421;28;20070;-84
2022/08/30 12:30:25;;;;;;;10.95;5.88;;;;;;;25.35;39.65;100012.13;4953200;28;20132;-83
2022/08/30 12:32:52;;;;;;;13.38;6.78;;;;;;;25.40;39.90;100017.72;4933556;28;20531;-85
2022/08/30 12:35:23;;;;;;;9.55;5.97;;;;;;;25.43;39.69;100010.97;4980508;28;20049;-85
2022/08/30 12:37:58;;;;;;;13.23;6.93;;;;;;;25.48;39.47;100009.22;4943960;28;20039;-83
2022/08/30 12:40:53;;;;;;;11.63;6.38;;;;;;;25.51;39.29;100008.75;4901687;28;20043;-83
2022/08/30 12:43:31;;;;;;;12.80;6.68;;;;;;;25.55;38.76;100007.25;4914206;28;20050;-82
2022/08/30 12:46:10;;;;;;;15.07;7.30;;;;;;;25.62;39.59;100007.19;4900878;28;20057;-83
2022/08/30 12:48:39;;;;;;;9.73;5.95;;;;;;;25.61;39.50;100002.78;4934154;28;20593;-83
2022/08/30 12:51:06;;;;;;;14.25;6.60;;;;;;;25.58;39.49;100000.53;4938917;28;20054;-83
2022/08/30 12:53:37;;;;;;;11.45;6.45;;;;;;;25.58;39.55;100000.53;4985308;28;20043;-83
2022/08/30 12:56:07;;;;;;;9.18;6.20;;;;;;;25.56;39.68;99992.59;4985129;28;20047;-82
2022/08/30 12:59:02;;;;;;;9.45;5.72;;;;;;;25.48;40.10;99989.38;4985338;28;20050;-83
2022/08/30 13:01:34;;;;;;;15.63;7.00;;;;;;;25.61;39.69;99991.09;4937692;28;20838;-83
2022/08/30 13:04:21;;;;;;;11.20;6.35;;;;;;;25.63;39.91;99988.97;4984181;28;20521;-82
2022/08/30 13:06:51;;;;;;;13.50;6.57;;;;;;;25.75;39.21;99984.41;4947395;28;20510;-82
2022/08/30 13:09:34;;;;;;;11.32;6.43;;;;;;;25.78;39.48;99983.94;4997290;28;20053;-82
2022/08/30 13:12:55;;;;;;;12.98;6.00;;;;;;;25.76;39.84;99983.31;4949295;28;20050;-84
2022/08/30 13:15:31;;;;;;;11.05;6.40;;;;;;;25.87;39.76;99973.56;4922079;28;20481;-83
2022/08/30 13:18:28;;;;;;;8.40;6.10;;;;;;;25.84;39.45;99976.72;4973024;28;20383;-85
2022/08/30 13:21:09;;;;;;;13.25;6.55;;;;;;;25.87;39.76;99974.38;4972171;28;20435;-83
2022/08/30 13:23:36;;;;;;;12.40;6.57;;;;;;;25.95;39.83;99965.91;4952716;28;20046;-84
2022/08/30 13:26:05;;;;;;;11.13;7.55;;;;;;;25.99;38.63;99961.66;4965171;28;20066;-83
2022/08/30 13:28:46;;;;;;;15.05;6.90;;;;;;;25.96;38.96;99959.41;4998756;28;20053;-84
2022/08/30 13:31:14;;;;;;;12.27;6.80;;;;;;;25.98;39.46;99951.84;4937864;28;20038;-83
2022/08/30 13:33:44;;;;;;;12.45;6.45;;;;;;;26.01;39.44;99953.25;4984301;28;20430;-82
2022/08/30 13:36:14;;;;;;;15.00;6.95;;;;;;;26.02;38.61;99949.47;4983825;28;20049;-83
2022/08/30 13:38:41;;;;;;;11.35;6.55;;;;;;;26.07;39.52;99946.03;4966872;28;20054;-84
2022/08/30 13:41:09;;;;;;;13.88;7.10;;;;;;;26.09;39.48;99941.19;4951413;28;20074;-83
2022/08/30 13:44:27;;;;;;;12.52;7.75;;;;;;;26.01;39.63;99941.56;4944998;28;20066;-83
2022/08/30 13:46:55;;;;;;;13.32;6.85;;;;;;;26.11;39.46;99942.63;4924851;28;20042;-84
2022/08/30 13:54:31;;;;;;;13.32;7.13;;;;;;;26.16;38.34;99925.59;4960901;28;20033;-82
2022/08/30 13:57:04;;;;;;;8.38;6.65;;;;;;;26.15;38.80;99935.63;4965668;28;20068;-83
2022/08/30 13:59:32;;;;;;;17.50;7.45;;;;;;;26.17;38.95;99927.25;4959910;28;20520;-84
2022/08/30 14:02:00;;;;;;;13.18;6.70;;;;;;;26.17;38.92;99922.63;4978854;28;20065;-83
2022/08/30 14:08:38;;;;;;;12.13;6.70;;;;;;;26.08;38.67;99924.06;4926057;28;20073;-83